sensor_id;sensor_type;location;lat;lon;timestamp;P1;durP1;ratioP1;P2;durP2;ratioP2
33206;SDS011;19565;46.602;11.534;2022-08-03T00:02:17;5.70;;;5.30;;
33206;SDS011;19565;46.602;11.534;2022-08-03T00:04:45;5.70;;;5.40;;
33206;SDS011;19565;46.602;11.534;2022-08-03T00:07:14;6.50;;;6.10;;
33206;SDS011;19565;46.602;11.534;2022-08-03T00:09:42;6.95;;;6.55;;
33206;SDS011;19565;46.602;11.534;2022-08-03T00:12:10;7.80;;;7.30;;
33206;SDS011;19565;46.602;11.534;2022-08-03T00:14:39;8.90;;;8.30;;
33206;SDS011;19565;46.602;11.534;2022-08-03T00:17:07;9.27;;;8.77;;
33206;SDS011;19565;46.602;11.534;2022-08-03T00:19:37;9.70;;;9.10;;
33206;SDS011;19565;46.602;11.534;2022-08-03T00:22:05;10.25;;;9.55;;
33206;SDS011;19565;46.602;11.534;2022-08-03T00:24:33;9.48;;;8.88;;
33206;SDS011;19565;46.602;11.534;2022-08-03T00:27:01;7.90;;;7.40;;
33206;SDS011;19565;46.602;11.534;2022-08-03T00:29:29;6.15;;;5.75;;
33206;SDS011;19565;46.602;11.534;2022-08-03T00:31:57;6.68;;;6.20;;
33206;SDS011;19565;46.602;11.534;2022-08-03T00:34:26;6.65;;;6.20;;
33206;SDS011;19565;46.602;11.534;2022-08-03T00:37:16;6.55;;;6.15;;
33206;SDS011;19565;46.602;11.534;2022-08-03T00:39:44;6.40;;;6.00;;
33206;SDS011;19565;46.602;11.534;2022-08-03T00:42:13;7.00;;;6.50;;
33206;SDS011;19565;46.602;11.534;2022-08-03T00:44:42;8.15;;;7.55;;
33206;SDS011;19565;46.602;11.534;2022-08-03T00:47:11;7.47;;;6.97;;
33206;SDS011;19565;46.602;11.534;2022-08-03T00:49:39;7.80;;;7.20;;
33206;SDS011;19565;46.602;11.534;2022-08-03T00:52:08;8.93;;;8.35;;
33206;SDS011;19565;46.602;11.534;2022-08-03T00:54:38;11.23;;;8.20;;
33206;SDS011;19565;46.602;11.534;2022-08-03T00:57:06;7.28;;;6.88;;
33206;SDS011;19565;46.602;11.534;2022-08-03T00:59:35;7.93;;;7.32;;
33206;SDS011;19565;46.602;11.534;2022-08-03T01:02:05;7.90;;;7.40;;
33206;SDS011;19565;46.602;11.534;2022-08-03T01:04:34;7.55;;;6.88;;
33206;SDS011;19565;46.602;11.534;2022-08-03T01:07:05;5.97;;;5.57;;
33206;SDS011;19565;46.602;11.534;2022-08-03T01:09:43;4.78;;;4.47;;
33206;SDS011;19565;46.602;11.534;2022-08-03T01:12:33;4.20;;;3.90;;
33206;SDS011;19565;46.602;11.534;2022-08-03T01:15:07;3.30;;;3.10;;
33206;SDS011;19565;46.602;11.534;2022-08-03T01:17:50;3.90;;;3.60;;
33206;SDS011;19565;46.602;11.534;2022-08-03T01:20:23;3.28;;;3.08;;
33206;SDS011;19565;46.602;11.534;2022-08-03T01:22:59;2.88;;;2.67;;
33206;SDS011;19565;46.602;11.534;2022-08-03T01:25:37;3.40;;;3.20;;
33206;SDS011;19565;46.602;11.534;2022-08-03T01:28:23;3.70;;;3.47;;
33206;SDS011;19565;46.602;11.534;2022-08-03T01:31:02;2.90;;;2.70;;
33206;SDS011;19565;46.602;11.534;2022-08-03T01:33:35;11.27;;;3.33;;
33206;SDS011;19565;46.602;11.534;2022-08-03T01:36:09;3.70;;;3.47;;
33206;SDS011;19565;46.602;11.534;2022-08-03T01:38:41;3.50;;;3.30;;
33206;SDS011;19565;46.602;11.534;2022-08-03T01:41:14;3.88;;;3.67;;
33206;SDS011;19565;46.602;11.534;2022-08-03T01:43:47;4.50;;;4.20;;
33206;SDS011;19565;46.602;11.534;2022-08-03T01:46:38;4.65;;;4.35;;
33206;SDS011;19565;46.602;11.534;2022-08-03T01:49:14;5.47;;;5.13;;
33206;SDS011;19565;46.602;11.534;2022-08-03T01:51:44;4.90;;;4.60;;
33206;SDS011;19565;46.602;11.534;2022-08-03T01:54:30;6.63;;;6.15;;
33206;SDS011;19565;46.602;11.534;2022-08-03T01:57:01;5.88;;;5.50;;
33206;SDS011;19565;46.602;11.534;2022-08-03T01:59:31;6.10;;;5.70;;
33206;SDS011;19565;46.602;11.534;2022-08-03T02:02:03;8.27;;;6.18;;
33206;SDS011;19565;46.602;11.534;2022-08-03T02:04:54;6.82;;;6.40;;
33206;SDS011;19565;46.602;11.534;2022-08-03T02:07:23;6.90;;;6.38;;
33206;SDS011;19565;46.602;11.534;2022-08-03T02:09:53;6.65;;;6.25;;
33206;SDS011;19565;46.602;11.534;2022-08-03T02:12:23;6.88;;;6.47;;
33206;SDS011;19565;46.602;11.534;2022-08-03T02:14:53;8.48;;;7.82;;
33206;SDS011;19565;46.602;11.534;2022-08-03T02:17:27;7.30;;;6.80;;
33206;SDS011;19565;46.602;11.534;2022-08-03T02:20:06;6.80;;;6.40;;
33206;SDS011;19565;46.602;11.534;2022-08-03T02:22:38;7.18;;;6.75;;
33206;SDS011;19565;46.602;11.534;2022-08-03T02:25:08;6.22;;;5.82;;
33206;SDS011;19565;46.602;11.534;2022-08-03T02:27:37;6.65;;;6.25;;
33206;SDS011;19565;46.602;11.534;2022-08-03T02:30:10;7.13;;;6.63;;
33206;SDS011;19565;46.602;11.534;2022-08-03T02:32:41;6.90;;;6.50;;
33206;SDS011;19565;46.602;11.534;2022-08-03T02:35:14;8.00;;;7.50;;
33206;SDS011;19565;46.602;11.534;2022-08-03T02:37:45;5.90;;;5.60;;
33206;SDS011;19565;46.602;11.534;2022-08-03T02:40:22;5.88;;;5.47;;
33206;SDS011;19565;46.602;11.534;2022-08-03T02:42:52;5.78;;;5.38;;
33206;SDS011;19565;46.602;11.534;2022-08-03T02:45:24;6.35;;;5.90;;
33206;SDS011;19565;46.602;11.534;2022-08-03T02:47:55;6.00;;;5.60;;
33206;SDS011;19565;46.602;11.534;2022-08-03T02:50:29;6.50;;;6.10;;
33206;SDS011;19565;46.602;11.534;2022-08-03T02:52:58;7.38;;;6.88;;
33206;SDS011;19565;46.602;11.534;2022-08-03T02:55:29;6.47;;;5.78;;
33206;SDS011;19565;46.602;11.534;2022-08-03T02:58:00;4.07;;;3.88;;
33206;SDS011;19565;46.602;11.534;2022-08-03T03:00:30;4.85;;;4.55;;
33206;SDS011;19565;46.602;11.534;2022-08-03T03:03:01;2.72;;;2.63;;
33206;SDS011;19565;46.602;11.534;2022-08-03T03:05:31;3.13;;;2.92;;
33206;SDS011;19565;46.602;11.534;2022-08-03T03:08:21;3.13;;;2.92;;
33206;SDS011;19565;46.602;11.534;2022-08-03T03:10:54;2.90;;;2.80;;
33206;SDS011;19565;46.602;11.534;2022-08-03T03:13:24;4.13;;;3.83;;
33206;SDS011;19565;46.602;11.534;2022-08-03T03:15:58;3.63;;;3.38;;
33206;SDS011;19565;46.602;11.534;2022-08-03T03:18:29;2.67;;;2.53;;
33206;SDS011;19565;46.602;11.534;2022-08-03T03:20:59;1.80;;;1.70;;
33206;SDS011;19565;46.602;11.534;2022-08-03T03:23:29;1.67;;;1.58;;
33206;SDS011;19565;46.602;11.534;2022-08-03T03:25:59;1.77;;;1.67;;
33206;SDS011;19565;46.602;11.534;2022-08-03T03:28:28;1.30;;;1.20;;
33206;SDS011;19565;46.602;11.534;2022-08-03T03:30:57;1.75;;;1.65;;
33206;SDS011;19565;46.602;11.534;2022-08-03T03:33:26;2.20;;;2.08;;
33206;SDS011;19565;46.602;11.534;2022-08-03T03:35:56;1.38;;;1.20;;
33206;SDS011;19565;46.602;11.534;2022-08-03T03:38:25;1.10;;;1.10;;
33206;SDS011;19565;46.602;11.534;2022-08-03T03:40:54;1.73;;;1.63;;
33206;SDS011;19565;46.602;11.534;2022-08-03T03:43:22;1.30;;;1.20;;
33206;SDS011;19565;46.602;11.534;2022-08-03T03:45:51;0.90;;;0.90;;
33206;SDS011;19565;46.602;11.534;2022-08-03T03:48:19;2.42;;;2.00;;
33206;SDS011;19565;46.602;11.534;2022-08-03T03:50:51;3.30;;;1.85;;
33206;SDS011;19565;46.602;11.534;2022-08-03T03:53:20;2.17;;;2.08;;
33206;SDS011;19565;46.602;11.534;2022-08-03T03:55:50;3.35;;;3.05;;
33206;SDS011;19565;46.602;11.534;2022-08-03T03:58:27;2.10;;;2.00;;
33206;SDS011;19565;46.602;11.534;2022-08-03T04:00:56;2.25;;;1.90;;
33206;SDS011;19565;46.602;11.534;2022-08-03T04:03:25;1.70;;;1.60;;
33206;SDS011;19565;46.602;11.534;2022-08-03T04:05:54;2.88;;;2.17;;
33206;SDS011;19565;46.602;11.534;2022-08-03T04:08:42;2.65;;;2.45;;
33206;SDS011;19565;46.602;11.534;2022-08-03T04:11:27;2.65;;;2.40;;
33206;SDS011;19565;46.602;11.534;2022-08-03T04:14:02;1.30;;;1.20;;
33206;SDS011;19565;46.602;11.534;2022-08-03T04:16:34;1.58;;;1.48;;
33206;SDS011;19565;46.602;11.534;2022-08-03T04:19:10;2.28;;;1.60;;
33206;SDS011;19565;46.602;11.534;2022-08-03T04:21:49;1.27;;;1.25;;
33206;SDS011;19565;46.602;11.534;2022-08-03T04:24:22;12.80;;;1.52;;
33206;SDS011;19565;46.602;11.534;2022-08-03T04:26:51;1.63;;;1.52;;
33206;SDS011;19565;46.602;11.534;2022-08-03T04:29:22;1.33;;;1.23;;
33206;SDS011;19565;46.602;11.534;2022-08-03T04:31:52;2.15;;;2.05;;
33206;SDS011;19565;46.602;11.534;2022-08-03T04:34:23;0.98;;;0.98;;
33206;SDS011;19565;46.602;11.534;2022-08-03T04:36:58;1.27;;;1.27;;
33206;SDS011;19565;46.602;11.534;2022-08-03T04:39:30;0.98;;;0.95;;
33206;SDS011;19565;46.602;11.534;2022-08-03T04:42:00;1.95;;;1.45;;
33206;SDS011;19565;46.602;11.534;2022-08-03T04:44:42;1.38;;;1.27;;
33206;SDS011;19565;46.602;11.534;2022-08-03T04:47:12;6.38;;;1.65;;
33206;SDS011;19565;46.602;11.534;2022-08-03T04:49:40;0.75;;;0.75;;
33206;SDS011;19565;46.602;11.534;2022-08-03T04:52:10;0.73;;;0.73;;
33206;SDS011;19565;46.602;11.534;2022-08-03T04:54:39;1.58;;;1.48;;
33206;SDS011;19565;46.602;11.534;2022-08-03T04:57:16;1.33;;;1.23;;
33206;SDS011;19565;46.602;11.534;2022-08-03T04:59:48;1.83;;;1.73;;
33206;SDS011;19565;46.602;11.534;2022-08-03T05:02:27;1.55;;;1.45;;
33206;SDS011;19565;46.602;11.534;2022-08-03T05:04:55;1.00;;;1.00;;
33206;SDS011;19565;46.602;11.534;2022-08-03T05:07:25;2.70;;;2.13;;
33206;SDS011;19565;46.602;11.534;2022-08-03T05:10:01;1.75;;;1.40;;
33206;SDS011;19565;46.602;11.534;2022-08-03T05:12:42;1.88;;;1.77;;
33206;SDS011;19565;46.602;11.534;2022-08-03T05:15:10;2.95;;;1.50;;
33206;SDS011;19565;46.602;11.534;2022-08-03T05:17:39;1.10;;;1.10;;
33206;SDS011;19565;46.602;11.534;2022-08-03T05:20:08;1.50;;;1.40;;
33206;SDS011;19565;46.602;11.534;2022-08-03T05:22:39;1.08;;;1.08;;
33206;SDS011;19565;46.602;11.534;2022-08-03T05:25:07;1.33;;;1.23;;
33206;SDS011;19565;46.602;11.534;2022-08-03T05:27:45;2.40;;;1.77;;
33206;SDS011;19565;46.602;11.534;2022-08-03T05:30:13;2.10;;;1.67;;
33206;SDS011;19565;46.602;11.534;2022-08-03T05:33:00;1.38;;;1.30;;
33206;SDS011;19565;46.602;11.534;2022-08-03T05:35:29;1.48;;;1.40;;
33206;SDS011;19565;46.602;11.534;2022-08-03T05:38:19;1.15;;;1.15;;
33206;SDS011;19565;46.602;11.534;2022-08-03T05:40:54;1.55;;;1.45;;
33206;SDS011;19565;46.602;11.534;2022-08-03T05:43:42;1.77;;;1.67;;
33206;SDS011;19565;46.602;11.534;2022-08-03T05:46:11;1.83;;;1.52;;
33206;SDS011;19565;46.602;11.534;2022-08-03T05:48:40;1.58;;;1.48;;
33206;SDS011;19565;46.602;11.534;2022-08-03T05:51:08;1.60;;;1.50;;
33206;SDS011;19565;46.602;11.534;2022-08-03T05:53:39;5.82;;;2.78;;
33206;SDS011;19565;46.602;11.534;2022-08-03T05:56:08;2.72;;;2.33;;
33206;SDS011;19565;46.602;11.534;2022-08-03T05:58:40;3.15;;;1.60;;
33206;SDS011;19565;46.602;11.534;2022-08-03T06:01:09;2.45;;;1.95;;
33206;SDS011;19565;46.602;11.534;2022-08-03T06:03:37;5.50;;;1.67;;
33206;SDS011;19565;46.602;11.534;2022-08-03T06:06:05;1.98;;;1.88;;
33206;SDS011;19565;46.602;11.534;2022-08-03T06:08:34;1.98;;;1.88;;
33206;SDS011;19565;46.602;11.534;2022-08-03T06:11:03;2.05;;;1.73;;
33206;SDS011;19565;46.602;11.534;2022-08-03T06:13:31;2.55;;;2.35;;
33206;SDS011;19565;46.602;11.534;2022-08-03T06:15:59;2.35;;;2.25;;
33206;SDS011;19565;46.602;11.534;2022-08-03T06:18:28;2.72;;;2.53;;
33206;SDS011;19565;46.602;11.534;2022-08-03T06:20:56;2.50;;;2.30;;
33206;SDS011;19565;46.602;11.534;2022-08-03T06:23:41;2.45;;;2.25;;
33206;SDS011;19565;46.602;11.534;2022-08-03T06:26:22;3.13;;;2.85;;
33206;SDS011;19565;46.602;11.534;2022-08-03T06:28:51;4.47;;;2.60;;
33206;SDS011;19565;46.602;11.534;2022-08-03T06:31:20;2.67;;;2.47;;
33206;SDS011;19565;46.602;11.534;2022-08-03T06:33:58;2.20;;;2.10;;
33206;SDS011;19565;46.602;11.534;2022-08-03T06:36:50;2.70;;;2.50;;
33206;SDS011;19565;46.602;11.534;2022-08-03T06:39:27;2.90;;;2.70;;
33206;SDS011;19565;46.602;11.534;2022-08-03T06:41:56;3.05;;;2.85;;
33206;SDS011;19565;46.602;11.534;2022-08-03T06:44:24;3.47;;;3.28;;
33206;SDS011;19565;46.602;11.534;2022-08-03T06:46:53;4.47;;;4.18;;
33206;SDS011;19565;46.602;11.534;2022-08-03T06:49:21;4.45;;;4.05;;
33206;SDS011;19565;46.602;11.534;2022-08-03T06:51:49;3.72;;;3.53;;
33206;SDS011;19565;46.602;11.534;2022-08-03T06:54:31;3.50;;;3.30;;
33206;SDS011;19565;46.602;11.534;2022-08-03T06:57:02;4.75;;;4.45;;
33206;SDS011;19565;46.602;11.534;2022-08-03T06:59:31;4.95;;;4.55;;
33206;SDS011;19565;46.602;11.534;2022-08-03T07:02:19;14.07;;;13.27;;
33206;SDS011;19565;46.602;11.534;2022-08-03T07:04:47;16.23;;;15.43;;
33206;SDS011;19565;46.602;11.534;2022-08-03T07:07:16;18.45;;;17.55;;
33206;SDS011;19565;46.602;11.534;2022-08-03T07:09:45;25.15;;;24.00;;
33206;SDS011;19565;46.602;11.534;2022-08-03T07:12:24;29.77;;;28.48;;
33206;SDS011;19565;46.602;11.534;2022-08-03T07:14:53;36.03;;;34.53;;
33206;SDS011;19565;46.602;11.534;2022-08-03T07:17:26;40.08;;;38.35;;
33206;SDS011;19565;46.602;11.534;2022-08-03T07:19:55;39.97;;;38.28;;
33206;SDS011;19565;46.602;11.534;2022-08-03T07:22:23;40.75;;;39.05;;
33206;SDS011;19565;46.602;11.534;2022-08-03T07:24:51;42.60;;;40.80;;
33206;SDS011;19565;46.602;11.534;2022-08-03T07:27:19;44.55;;;42.65;;
33206;SDS011;19565;46.602;11.534;2022-08-03T07:29:49;44.40;;;42.50;;
33206;SDS011;19565;46.602;11.534;2022-08-03T07:32:17;47.40;;;45.40;;
33206;SDS011;19565;46.602;11.534;2022-08-03T07:34:45;50.80;;;46.60;;
33206;SDS011;19565;46.602;11.534;2022-08-03T07:37:13;48.53;;;46.53;;
33206;SDS011;19565;46.602;11.534;2022-08-03T07:39:41;51.75;;;49.55;;
33206;SDS011;19565;46.602;11.534;2022-08-03T07:42:10;53.42;;;51.13;;
33206;SDS011;19565;46.602;11.534;2022-08-03T07:44:38;56.22;;;53.92;;
33206;SDS011;19565;46.602;11.534;2022-08-03T07:47:08;56.88;;;54.47;;
33206;SDS011;19565;46.602;11.534;2022-08-03T07:49:47;56.13;;;53.72;;
33206;SDS011;19565;46.602;11.534;2022-08-03T07:52:15;53.13;;;50.88;;
33206;SDS011;19565;46.602;11.534;2022-08-03T07:55:01;53.20;;;50.80;;
33206;SDS011;19565;46.602;11.534;2022-08-03T07:57:29;53.28;;;51.08;;
33206;SDS011;19565;46.602;11.534;2022-08-03T07:59:57;54.00;;;51.60;;
33206;SDS011;19565;46.602;11.534;2022-08-03T08:02:29;53.72;;;51.40;;
33206;SDS011;19565;46.602;11.534;2022-08-03T08:04:57;52.47;;;50.28;;
33206;SDS011;19565;46.602;11.534;2022-08-03T08:07:31;59.75;;;57.25;;
33206;SDS011;19565;46.602;11.534;2022-08-03T08:09:59;57.08;;;54.60;;
33206;SDS011;19565;46.602;11.534;2022-08-03T08:12:27;56.03;;;53.63;;
33206;SDS011;19565;46.602;11.534;2022-08-03T08:14:55;56.30;;;53.95;;
33206;SDS011;19565;46.602;11.534;2022-08-03T08:17:23;55.85;;;53.50;;
33206;SDS011;19565;46.602;11.534;2022-08-03T08:19:53;53.72;;;51.42;;
33206;SDS011;19565;46.602;11.534;2022-08-03T08:22:21;55.35;;;52.95;;
33206;SDS011;19565;46.602;11.534;2022-08-03T08:24:56;57.92;;;55.50;;
33206;SDS011;19565;46.602;11.534;2022-08-03T08:27:26;61.35;;;58.75;;
33206;SDS011;19565;46.602;11.534;2022-08-03T08:30:15;58.33;;;55.92;;
33206;SDS011;19565;46.602;11.534;2022-08-03T08:32:45;58.92;;;56.42;;
33206;SDS011;19565;46.602;11.534;2022-08-03T08:35:15;55.05;;;52.70;;
33206;SDS011;19565;46.602;11.534;2022-08-03T08:37:44;55.25;;;52.92;;
33206;SDS011;19565;46.602;11.534;2022-08-03T08:40:16;54.45;;;52.15;;
33206;SDS011;19565;46.602;11.534;2022-08-03T08:42:48;56.40;;;54.00;;
33206;SDS011;19565;46.602;11.534;2022-08-03T08:45:24;58.28;;;55.78;;
33206;SDS011;19565;46.602;11.534;2022-08-03T08:47:55;55.88;;;53.58;;
33206;SDS011;19565;46.602;11.534;2022-08-03T08:50:33;57.40;;;55.00;;
33206;SDS011;19565;46.602;11.534;2022-08-03T08:53:03;57.58;;;55.17;;
33206;SDS011;19565;46.602;11.534;2022-08-03T08:55:36;61.50;;;58.90;;
33206;SDS011;19565;46.602;11.534;2022-08-03T08:58:25;59.15;;;56.65;;
33206;SDS011;19565;46.602;11.534;2022-08-03T09:00:55;60.13;;;57.53;;
33206;SDS011;19565;46.602;11.534;2022-08-03T09:03:24;61.55;;;58.03;;
33206;SDS011;19565;46.602;11.534;2022-08-03T09:05:57;61.45;;;58.85;;
33206;SDS011;19565;46.602;11.534;2022-08-03T09:08:27;58.22;;;55.72;;
33206;SDS011;19565;46.602;11.534;2022-08-03T09:10:56;67.00;;;64.25;;
33206;SDS011;19565;46.602;11.534;2022-08-03T09:13:24;56.45;;;54.05;;
33206;SDS011;19565;46.602;11.534;2022-08-03T09:16:10;53.20;;;50.92;;
33206;SDS011;19565;46.602;11.534;2022-08-03T09:18:40;53.95;;;51.65;;
33206;SDS011;19565;46.602;11.534;2022-08-03T09:21:17;55.92;;;53.63;;
33206;SDS011;19565;46.602;11.534;2022-08-03T09:24:03;52.92;;;50.63;;
33206;SDS011;19565;46.602;11.534;2022-08-03T09:26:51;56.03;;;53.67;;
33206;SDS011;19565;46.602;11.534;2022-08-03T09:29:19;55.42;;;53.03;;
33206;SDS011;19565;46.602;11.534;2022-08-03T09:31:48;67.80;;;65.00;;
33206;SDS011;19565;46.602;11.534;2022-08-03T09:34:25;58.10;;;55.60;;
33206;SDS011;19565;46.602;11.534;2022-08-03T09:36:55;59.35;;;56.85;;
33206;SDS011;19565;46.602;11.534;2022-08-03T09:39:24;59.13;;;56.63;;
33206;SDS011;19565;46.602;11.534;2022-08-03T09:42:07;59.83;;;57.22;;
33206;SDS011;19565;46.602;11.534;2022-08-03T09:44:40;61.90;;;59.30;;
33206;SDS011;19565;46.602;11.534;2022-08-03T09:47:10;59.92;;;57.33;;
33206;SDS011;19565;46.602;11.534;2022-08-03T09:49:40;61.88;;;59.28;;
33206;SDS011;19565;46.602;11.534;2022-08-03T09:52:13;64.00;;;61.30;;
33206;SDS011;19565;46.602;11.534;2022-08-03T09:55:07;63.38;;;60.67;;
33206;SDS011;19565;46.602;11.534;2022-08-03T09:58:02;66.78;;;63.45;;
33206;SDS011;19565;46.602;11.534;2022-08-03T10:00:32;62.50;;;59.80;;
33206;SDS011;19565;46.602;11.534;2022-08-03T10:03:20;58.67;;;56.17;;
33206;SDS011;19565;46.602;11.534;2022-08-03T10:05:49;59.03;;;56.53;;
33206;SDS011;19565;46.602;11.534;2022-08-03T10:08:24;59.20;;;56.67;;
33206;SDS011;19565;46.602;11.534;2022-08-03T10:10:52;61.08;;;58.38;;
33206;SDS011;19565;46.602;11.534;2022-08-03T10:13:20;64.72;;;61.53;;
33206;SDS011;19565;46.602;11.534;2022-08-03T10:15:49;62.60;;;59.75;;
33206;SDS011;19565;46.602;11.534;2022-08-03T10:18:37;59.47;;;56.97;;
33206;SDS011;19565;46.602;11.534;2022-08-03T10:21:07;57.15;;;54.67;;
33206;SDS011;19565;46.602;11.534;2022-08-03T10:23:39;56.70;;;54.30;;
33206;SDS011;19565;46.602;11.534;2022-08-03T10:26:08;56.35;;;53.85;;
33206;SDS011;19565;46.602;11.534;2022-08-03T10:28:40;57.50;;;55.00;;
33206;SDS011;19565;46.602;11.534;2022-08-03T10:31:13;57.75;;;55.33;;
33206;SDS011;19565;46.602;11.534;2022-08-03T10:33:46;58.72;;;56.22;;
33206;SDS011;19565;46.602;11.534;2022-08-03T10:36:19;58.20;;;55.78;;
33206;SDS011;19565;46.602;11.534;2022-08-03T10:38:51;57.78;;;55.30;;
33206;SDS011;19565;46.602;11.534;2022-08-03T10:41:21;55.50;;;53.10;;
33206;SDS011;19565;46.602;11.534;2022-08-03T10:43:55;58.95;;;56.45;;
33206;SDS011;19565;46.602;11.534;2022-08-03T10:46:25;58.47;;;55.95;;
33206;SDS011;19565;46.602;11.534;2022-08-03T10:48:54;57.10;;;54.70;;
33206;SDS011;19565;46.602;11.534;2022-08-03T10:51:24;57.10;;;54.70;;
33206;SDS011;19565;46.602;11.534;2022-08-03T10:53:58;57.03;;;54.63;;
33206;SDS011;19565;46.602;11.534;2022-08-03T10:56:37;55.08;;;52.78;;
33206;SDS011;19565;46.602;11.534;2022-08-03T11:02:30;58.90;;;56.03;;
33206;SDS011;19565;46.602;11.534;2022-08-03T11:05:35;60.60;;;58.08;;
33206;SDS011;19565;46.602;11.534;2022-08-03T11:13:55;59.55;;;57.03;;
33206;SDS011;19565;46.602;11.534;2022-08-03T11:16:25;59.22;;;56.72;;
33206;SDS011;19565;46.602;11.534;2022-08-03T11:18:56;60.55;;;57.35;;
33206;SDS011;19565;46.602;11.534;2022-08-03T11:27:25;57.20;;;54.80;;
33206;SDS011;19565;46.602;11.534;2022-08-03T11:29:55;56.83;;;54.42;;
33206;SDS011;19565;46.602;11.534;2022-08-03T11:35:20;56.50;;;54.13;;
33206;SDS011;19565;46.602;11.534;2022-08-03T11:38:02;57.35;;;54.75;;
33206;SDS011;19565;46.602;11.534;2022-08-03T11:40:38;54.42;;;52.13;;
33206;SDS011;19565;46.602;11.534;2022-08-03T11:43:08;54.33;;;52.03;;
33206;SDS011;19565;46.602;11.534;2022-08-03T11:45:37;52.47;;;50.28;;
33206;SDS011;19565;46.602;11.534;2022-08-03T11:48:22;54.38;;;51.88;;
33206;SDS011;19565;46.602;11.534;2022-08-03T11:50:55;50.38;;;48.28;;
33206;SDS011;19565;46.602;11.534;2022-08-03T11:53:23;52.25;;;49.95;;
33206;SDS011;19565;46.602;11.534;2022-08-03T11:55:51;49.03;;;46.95;;
33206;SDS011;19565;46.602;11.534;2022-08-03T11:58:20;51.75;;;49.55;;
33206;SDS011;19565;46.602;11.534;2022-08-03T12:01:09;56.38;;;53.95;;
33206;SDS011;19565;46.602;11.534;2022-08-03T12:03:37;54.65;;;52.35;;
33206;SDS011;19565;46.602;11.534;2022-08-03T12:06:09;56.40;;;54.00;;
33206;SDS011;19565;46.602;11.534;2022-08-03T12:08:38;52.80;;;50.60;;
33206;SDS011;19565;46.602;11.534;2022-08-03T12:11:07;56.35;;;53.95;;
33206;SDS011;19565;46.602;11.534;2022-08-03T12:13:40;54.35;;;52.05;;
33206;SDS011;19565;46.602;11.534;2022-08-03T12:16:30;56.00;;;53.60;;
33206;SDS011;19565;46.602;11.534;2022-08-03T12:18:59;53.28;;;50.83;;
33206;SDS011;19565;46.602;11.534;2022-08-03T12:21:30;58.70;;;56.25;;
33206;SDS011;19565;46.602;11.534;2022-08-03T12:23:59;53.40;;;51.20;;
33206;SDS011;19565;46.602;11.534;2022-08-03T12:26:30;53.00;;;50.70;;
33206;SDS011;19565;46.602;11.534;2022-08-03T12:29:23;56.03;;;53.63;;
33206;SDS011;19565;46.602;11.534;2022-08-03T12:31:53;53.45;;;50.80;;
33206;SDS011;19565;46.602;11.534;2022-08-03T12:34:21;55.45;;;53.10;;
33206;SDS011;19565;46.602;11.534;2022-08-03T12:36:57;56.55;;;53.97;;
33206;SDS011;19565;46.602;11.534;2022-08-03T12:39:27;53.78;;;51.47;;
33206;SDS011;19565;46.602;11.534;2022-08-03T12:41:57;53.38;;;51.13;;
33206;SDS011;19565;46.602;11.534;2022-08-03T12:44:28;55.47;;;53.08;;
33206;SDS011;19565;46.602;11.534;2022-08-03T12:46:57;52.60;;;50.40;;
33206;SDS011;19565;46.602;11.534;2022-08-03T12:49:26;56.45;;;54.05;;
33206;SDS011;19565;46.602;11.534;2022-08-03T12:51:57;55.22;;;52.83;;
33206;SDS011;19565;46.602;11.534;2022-08-03T12:54:32;56.13;;;53.72;;
33206;SDS011;19565;46.602;11.534;2022-08-03T12:57:01;53.15;;;50.85;;
33206;SDS011;19565;46.602;11.534;2022-08-03T12:59:34;51.13;;;48.83;;
33206;SDS011;19565;46.602;11.534;2022-08-03T13:02:18;51.05;;;48.95;;
33206;SDS011;19565;46.602;11.534;2022-08-03T13:04:49;54.53;;;52.22;;
33206;SDS011;19565;46.602;11.534;2022-08-03T13:07:19;54.60;;;52.30;;
33206;SDS011;19565;46.602;11.534;2022-08-03T13:09:50;52.35;;;50.15;;
33206;SDS011;19565;46.602;11.534;2022-08-03T13:12:20;56.95;;;54.53;;
33206;SDS011;19565;46.602;11.534;2022-08-03T13:14:49;54.88;;;52.58;;
33206;SDS011;19565;46.602;11.534;2022-08-03T13:17:18;51.92;;;49.72;;
33206;SDS011;19565;46.602;11.534;2022-08-03T13:19:47;56.25;;;53.75;;
33206;SDS011;19565;46.602;11.534;2022-08-03T13:22:16;55.85;;;53.10;;
33206;SDS011;19565;46.602;11.534;2022-08-03T13:24:49;55.78;;;53.40;;
33206;SDS011;19565;46.602;11.534;2022-08-03T13:27:18;51.83;;;49.63;;
33206;SDS011;19565;46.602;11.534;2022-08-03T13:30:06;51.33;;;49.13;;
33206;SDS011;19565;46.602;11.534;2022-08-03T13:32:36;50.80;;;48.50;;
33206;SDS011;19565;46.602;11.534;2022-08-03T13:35:04;54.10;;;51.83;;
33206;SDS011;19565;46.602;11.534;2022-08-03T13:37:34;52.55;;;50.35;;
33206;SDS011;19565;46.602;11.534;2022-08-03T13:40:05;53.17;;;50.83;;
33206;SDS011;19565;46.602;11.534;2022-08-03T13:42:36;52.53;;;50.33;;
33206;SDS011;19565;46.602;11.534;2022-08-03T13:45:05;56.75;;;54.08;;
33206;SDS011;19565;46.602;11.534;2022-08-03T13:47:34;53.40;;;51.20;;
33206;SDS011;19565;46.602;11.534;2022-08-03T13:50:03;52.90;;;50.70;;
33206;SDS011;19565;46.602;11.534;2022-08-03T13:52:32;56.58;;;54.17;;
33206;SDS011;19565;46.602;11.534;2022-08-03T13:55:02;52.88;;;50.67;;
33206;SDS011;19565;46.602;11.534;2022-08-03T13:57:33;58.58;;;56.17;;
33206;SDS011;19565;46.602;11.534;2022-08-03T14:00:22;54.35;;;51.95;;
33206;SDS011;19565;46.602;11.534;2022-08-03T14:02:58;57.58;;;55.08;;
33206;SDS011;19565;46.602;11.534;2022-08-03T14:05:38;60.22;;;57.72;;
33206;SDS011;19565;46.602;11.534;2022-08-03T14:08:07;61.95;;;59.35;;
33206;SDS011;19565;46.602;11.534;2022-08-03T14:10:37;58.15;;;55.28;;
33206;SDS011;19565;46.602;11.534;2022-08-03T14:13:07;62.38;;;59.67;;
33206;SDS011;19565;46.602;11.534;2022-08-03T14:15:37;59.55;;;57.05;;
33206;SDS011;19565;46.602;11.534;2022-08-03T14:18:05;58.55;;;56.15;;
33206;SDS011;19565;46.602;11.534;2022-08-03T14:20:52;61.10;;;58.50;;
33206;SDS011;19565;46.602;11.534;2022-08-03T14:23:23;60.85;;;58.25;;
33206;SDS011;19565;46.602;11.534;2022-08-03T14:25:53;64.18;;;61.55;;
33206;SDS011;19565;46.602;11.534;2022-08-03T14:28:22;63.42;;;60.30;;
33206;SDS011;19565;46.602;11.534;2022-08-03T14:30:51;61.75;;;59.13;;
33206;SDS011;19565;46.602;11.534;2022-08-03T14:33:21;59.72;;;57.15;;
33206;SDS011;19565;46.602;11.534;2022-08-03T14:35:49;61.03;;;57.70;;
33206;SDS011;19565;46.602;11.534;2022-08-03T14:38:18;63.53;;;60.53;;
33206;SDS011;19565;46.602;11.534;2022-08-03T14:40:47;61.90;;;59.30;;
33206;SDS011;19565;46.602;11.534;2022-08-03T14:43:17;61.78;;;59.17;;
33206;SDS011;19565;46.602;11.534;2022-08-03T14:45:46;60.70;;;58.10;;
33206;SDS011;19565;46.602;11.534;2022-08-03T14:48:17;55.63;;;53.25;;
33206;SDS011;19565;46.602;11.534;2022-08-03T14:51:05;56.63;;;54.22;;
33206;SDS011;19565;46.602;11.534;2022-08-03T14:53:33;61.40;;;58.80;;
33206;SDS011;19565;46.602;11.534;2022-08-03T14:56:02;59.95;;;57.35;;
33206;SDS011;19565;46.602;11.534;2022-08-03T14:58:37;55.47;;;53.03;;
33206;SDS011;19565;46.602;11.534;2022-08-03T15:01:07;57.75;;;55.25;;
33206;SDS011;19565;46.602;11.534;2022-08-03T15:03:55;57.30;;;54.90;;
33206;SDS011;19565;46.602;11.534;2022-08-03T15:06:23;57.00;;;54.60;;
33206;SDS011;19565;46.602;11.534;2022-08-03T15:08:52;64.10;;;61.40;;
33206;SDS011;19565;46.602;11.534;2022-08-03T15:11:40;64.13;;;61.42;;